sensor_id;sensor_type;location;lat;lon;timestamp;P1;durP1;ratioP1;P2;durP2;ratioP2
51288;SDS011;37372;52.294;5.152;2022-10-23T00:04:15;17.10;;;9.60;;
51288;SDS011;37372;52.294;5.152;2022-10-23T00:06:43;21.67;;;10.00;;
51288;SDS011;37372;52.294;5.152;2022-10-23T00:09:10;23.70;;;11.02;;
51288;SDS011;37372;52.294;5.152;2022-10-23T00:11:37;28.35;;;11.63;;
51288;SDS011;37372;52.294;5.152;2022-10-23T00:14:05;21.80;;;12.10;;
51288;SDS011;37372;52.294;5.152;2022-10-23T00:16:31;18.92;;;11.32;;
51288;SDS011;37372;52.294;5.152;2022-10-23T00:18:57;19.85;;;9.93;;
51288;SDS011;37372;52.294;5.152;2022-10-23T00:21:23;24.52;;;12.65;;
51288;SDS011;37372;52.294;5.152;2022-10-23T00:23:49;18.17;;;10.30;;
51288;SDS011;37372;52.294;5.152;2022-10-23T00:26:15;21.85;;;12.00;;
51288;SDS011;37372;52.294;5.152;2022-10-23T00:28:45;22.02;;;10.75;;
51288;SDS011;37372;52.294;5.152;2022-10-23T00:31:13;24.23;;;11.73;;
51288;SDS011;37372;52.294;5.152;2022-10-23T00:33:39;22.50;;;11.75;;
51288;SDS011;37372;52.294;5.152;2022-10-23T00:36:06;20.38;;;11.27;;
51288;SDS011;37372;52.294;5.152;2022-10-23T00:38:33;21.35;;;11.75;;
51288;SDS011;37372;52.294;5.152;2022-10-23T00:40:59;28.55;;;12.70;;
51288;SDS011;37372;52.294;5.152;2022-10-23T00:43:26;22.35;;;11.82;;
51288;SDS011;37372;52.294;5.152;2022-10-23T00:45:53;21.58;;;11.82;;
51288;SDS011;37372;52.294;5.152;2022-10-23T00:48:19;31.67;;;11.63;;
51288;SDS011;37372;52.294;5.152;2022-10-23T00:50:45;20.08;;;11.68;;
51288;SDS011;37372;52.294;5.152;2022-10-23T00:53:12;28.67;;;12.52;;
51288;SDS011;37372;52.294;5.152;2022-10-23T00:55:40;18.38;;;11.90;;
51288;SDS011;37372;52.294;5.152;2022-10-23T00:58:15;20.10;;;12.65;;
51288;SDS011;37372;52.294;5.152;2022-10-23T01:03:07;21.83;;;12.48;;
51288;SDS011;37372;52.294;5.152;2022-10-23T01:05:45;31.00;;;13.15;;
51288;SDS011;37372;52.294;5.152;2022-10-23T01:08:26;23.45;;;12.27;;
51288;SDS011;37372;52.294;5.152;2022-10-23T01:10:57;25.05;;;13.48;;
51288;SDS011;37372;52.294;5.152;2022-10-23T01:16:32;25.80;;;11.25;;
51288;SDS011;37372;52.294;5.152;2022-10-23T01:19:21;17.67;;;10.98;;
51288;SDS011;37372;52.294;5.152;2022-10-23T01:24:58;24.33;;;12.32;;
51288;SDS011;37372;52.294;5.152;2022-10-23T01:27:33;20.38;;;11.32;;
51288;SDS011;37372;52.294;5.152;2022-10-23T01:30:11;25.88;;;12.02;;
51288;SDS011;37372;52.294;5.152;2022-10-23T01:32:43;24.90;;;12.60;;
51288;SDS011;37372;52.294;5.152;2022-10-23T01:37:47;22.67;;;11.68;;
51288;SDS011;37372;52.294;5.152;2022-10-23T01:40:47;22.60;;;13.25;;
51288;SDS011;37372;52.294;5.152;2022-10-23T01:43:23;26.30;;;11.95;;
51288;SDS011;37372;52.294;5.152;2022-10-23T01:45:56;19.67;;;12.07;;
51288;SDS011;37372;52.294;5.152;2022-10-23T01:48:26;27.63;;;13.45;;
51288;SDS011;37372;52.294;5.152;2022-10-23T01:50:57;23.27;;;14.10;;
51288;SDS011;37372;52.294;5.152;2022-10-23T01:53:26;23.67;;;13.57;;
51288;SDS011;37372;52.294;5.152;2022-10-23T01:55:55;23.10;;;13.82;;
51288;SDS011;37372;52.294;5.152;2022-10-23T01:58:22;28.83;;;13.95;;
51288;SDS011;37372;52.294;5.152;2022-10-23T02:00:50;21.48;;;14.15;;
51288;SDS011;37372;52.294;5.152;2022-10-23T02:03:18;24.95;;;15.02;;
51288;SDS011;37372;52.294;5.152;2022-10-23T02:05:45;25.73;;;14.07;;
51288;SDS011;37372;52.294;5.152;2022-10-23T02:08:11;29.15;;;14.45;;
51288;SDS011;37372;52.294;5.152;2022-10-23T02:13:14;23.88;;;13.32;;
51288;SDS011;37372;52.294;5.152;2022-10-23T02:16:05;30.88;;;14.02;;
51288;SDS011;37372;52.294;5.152;2022-10-23T02:19:03;20.40;;;13.80;;
51288;SDS011;37372;52.294;5.152;2022-10-23T02:24:15;22.15;;;13.48;;
51288;SDS011;37372;52.294;5.152;2022-10-23T02:29:19;23.80;;;13.15;;
51288;SDS011;37372;52.294;5.152;2022-10-23T02:31:51;27.83;;;15.10;;
51288;SDS011;37372;52.294;5.152;2022-10-23T02:34:17;26.27;;;14.45;;
51288;SDS011;37372;52.294;5.152;2022-10-23T02:36:42;23.05;;;13.68;;
51288;SDS011;37372;52.294;5.152;2022-10-23T02:39:08;25.20;;;14.35;;
51288;SDS011;37372;52.294;5.152;2022-10-23T02:41:39;25.70;;;14.15;;
51288;SDS011;37372;52.294;5.152;2022-10-23T02:44:31;21.23;;;13.98;;
51288;SDS011;37372;52.294;5.152;2022-10-23T02:52:31;28.73;;;14.20;;
51288;SDS011;37372;52.294;5.152;2022-10-23T03:00:49;28.27;;;15.07;;
51288;SDS011;37372;52.294;5.152;2022-10-23T03:03:21;24.95;;;15.30;;
51288;SDS011;37372;52.294;5.152;2022-10-23T03:05:52;24.13;;;14.13;;
51288;SDS011;37372;52.294;5.152;2022-10-23T03:08:18;24.35;;;14.15;;
51288;SDS011;37372;52.294;5.152;2022-10-23T03:10:43;26.10;;;14.32;;
51288;SDS011;37372;52.294;5.152;2022-10-23T03:13:09;26.48;;;15.07;;
51288;SDS011;37372;52.294;5.152;2022-10-23T03:15:35;23.98;;;15.57;;
51288;SDS011;37372;52.294;5.152;2022-10-23T03:18:01;24.77;;;13.20;;
51288;SDS011;37372;52.294;5.152;2022-10-23T03:20:27;27.75;;;15.25;;
51288;SDS011;37372;52.294;5.152;2022-10-23T03:22:53;22.63;;;13.95;;
51288;SDS011;37372;52.294;5.152;2022-10-23T03:25:18;21.45;;;14.25;;
51288;SDS011;37372;52.294;5.152;2022-10-23T03:27:44;24.00;;;14.40;;
51288;SDS011;37372;52.294;5.152;2022-10-23T03:30:09;22.60;;;13.55;;
51288;SDS011;37372;52.294;5.152;2022-10-23T03:32:35;18.75;;;13.32;;
51288;SDS011;37372;52.294;5.152;2022-10-23T03:35:01;23.77;;;14.48;;
51288;SDS011;37372;52.294;5.152;2022-10-23T03:37:26;25.63;;;13.30;;
51288;SDS011;37372;52.294;5.152;2022-10-23T03:39:51;25.67;;;14.20;;
51288;SDS011;37372;52.294;5.152;2022-10-23T03:42:20;23.17;;;14.40;;
51288;SDS011;37372;52.294;5.152;2022-10-23T03:44:45;26.23;;;14.25;;
51288;SDS011;37372;52.294;5.152;2022-10-23T03:47:11;23.23;;;14.48;;
51288;SDS011;37372;52.294;5.152;2022-10-23T03:49:37;22.75;;;13.13;;
51288;SDS011;37372;52.294;5.152;2022-10-23T03:52:03;23.85;;;13.52;;
51288;SDS011;37372;52.294;5.152;2022-10-23T03:54:29;25.55;;;14.73;;
51288;SDS011;37372;52.294;5.152;2022-10-23T03:56:55;23.77;;;12.88;;
51288;SDS011;37372;52.294;5.152;2022-10-23T03:59:21;22.30;;;13.20;;
51288;SDS011;37372;52.294;5.152;2022-10-23T04:01:46;34.00;;;13.93;;
51288;SDS011;37372;52.294;5.152;2022-10-23T04:04:12;25.27;;;15.43;;
51288;SDS011;37372;52.294;5.152;2022-10-23T04:06:38;24.38;;;13.15;;
51288;SDS011;37372;52.294;5.152;2022-10-23T04:09:05;26.05;;;14.57;;
51288;SDS011;37372;52.294;5.152;2022-10-23T04:11:31;19.60;;;12.45;;
51288;SDS011;37372;52.294;5.152;2022-10-23T04:13:57;24.98;;;13.38;;
51288;SDS011;37372;52.294;5.152;2022-10-23T04:16:23;21.70;;;13.13;;
51288;SDS011;37372;52.294;5.152;2022-10-23T04:18:49;26.00;;;12.98;;
51288;SDS011;37372;52.294;5.152;2022-10-23T04:21:15;23.23;;;12.65;;
51288;SDS011;37372;52.294;5.152;2022-10-23T04:23:41;24.17;;;12.88;;
51288;SDS011;37372;52.294;5.152;2022-10-23T04:26:06;21.58;;;12.20;;
51288;SDS011;37372;52.294;5.152;2022-10-23T04:28:32;23.17;;;13.07;;
51288;SDS011;37372;52.294;5.152;2022-10-23T04:30:57;21.35;;;12.65;;
51288;SDS011;37372;52.294;5.152;2022-10-23T04:33:23;25.58;;;13.70;;
51288;SDS011;37372;52.294;5.152;2022-10-23T04:35:49;19.85;;;11.40;;
51288;SDS011;37372;52.294;5.152;2022-10-23T04:38:14;23.77;;;12.77;;
51288;SDS011;37372;52.294;5.152;2022-10-23T04:40:39;26.02;;;12.75;;
51288;SDS011;37372;52.294;5.152;2022-10-23T04:43:05;24.73;;;12.65;;
51288;SDS011;37372;52.294;5.152;2022-10-23T04:45:30;35.90;;;13.48;;
51288;SDS011;37372;52.294;5.152;2022-10-23T04:47:56;25.05;;;12.52;;
51288;SDS011;37372;52.294;5.152;2022-10-23T04:50:22;23.85;;;12.77;;
51288;SDS011;37372;52.294;5.152;2022-10-23T04:52:52;24.17;;;12.40;;
51288;SDS011;37372;52.294;5.152;2022-10-23T04:55:18;25.58;;;12.55;;
51288;SDS011;37372;52.294;5.152;2022-10-23T04:57:43;23.98;;;14.52;;
51288;SDS011;37372;52.294;5.152;2022-10-23T05:00:11;20.40;;;12.82;;
51288;SDS011;37372;52.294;5.152;2022-10-23T05:02:39;21.95;;;12.88;;
51288;SDS011;37372;52.294;5.152;2022-10-23T05:05:05;23.33;;;13.73;;
51288;SDS011;37372;52.294;5.152;2022-10-23T05:07:31;22.77;;;12.38;;
51288;SDS011;37372;52.294;5.152;2022-10-23T05:09:57;26.60;;;12.70;;
51288;SDS011;37372;52.294;5.152;2022-10-23T05:12:23;23.17;;;11.07;;
51288;SDS011;37372;52.294;5.152;2022-10-23T05:14:50;24.45;;;11.70;;
51288;SDS011;37372;52.294;5.152;2022-10-23T05:17:18;19.38;;;11.35;;
51288;SDS011;37372;52.294;5.152;2022-10-23T05:19:52;21.30;;;11.25;;
51288;SDS011;37372;52.294;5.152;2022-10-23T05:22:21;22.33;;;11.57;;
51288;SDS011;37372;52.294;5.152;2022-10-23T05:24:50;19.02;;;11.35;;
51288;SDS011;37372;52.294;5.152;2022-10-23T05:27:17;21.95;;;10.95;;
51288;SDS011;37372;52.294;5.152;2022-10-23T05:29:43;21.52;;;11.48;;
51288;SDS011;37372;52.294;5.152;2022-10-23T05:32:08;21.27;;;12.63;;
51288;SDS011;37372;52.294;5.152;2022-10-23T05:34:35;20.83;;;11.77;;
51288;SDS011;37372;52.294;5.152;2022-10-23T05:37:02;25.17;;;11.00;;
51288;SDS011;37372;52.294;5.152;2022-10-23T05:39:31;22.10;;;11.65;;
51288;SDS011;37372;52.294;5.152;2022-10-23T05:41:58;18.90;;;11.43;;
51288;SDS011;37372;52.294;5.152;2022-10-23T05:44:24;26.75;;;12.63;;
51288;SDS011;37372;52.294;5.152;2022-10-23T05:46:52;15.52;;;9.93;;
51288;SDS011;37372;52.294;5.152;2022-10-23T05:49:18;21.13;;;11.63;;
51288;SDS011;37372;52.294;5.152;2022-10-23T05:51:43;21.20;;;10.65;;
51288;SDS011;37372;52.294;5.152;2022-10-23T05:54:09;19.38;;;9.73;;
51288;SDS011;37372;52.294;5.152;2022-10-23T05:56:35;22.65;;;11.38;;
51288;SDS011;37372;52.294;5.152;2022-10-23T05:59:02;19.33;;;10.48;;
51288;SDS011;37372;52.294;5.152;2022-10-23T06:01:28;26.05;;;10.45;;
51288;SDS011;37372;52.294;5.152;2022-10-23T06:03:55;17.30;;;9.18;;
51288;SDS011;37372;52.294;5.152;2022-10-23T06:06:22;24.23;;;10.77;;
51288;SDS011;37372;52.294;5.152;2022-10-23T06:08:47;17.83;;;8.82;;
51288;SDS011;37372;52.294;5.152;2022-10-23T06:11:13;20.40;;;10.70;;
51288;SDS011;37372;52.294;5.152;2022-10-23T06:13:43;15.80;;;8.43;;
51288;SDS011;37372;52.294;5.152;2022-10-23T06:18:39;21.40;;;9.77;;
51288;SDS011;37372;52.294;5.152;2022-10-23T06:21:05;20.25;;;9.77;;
51288;SDS011;37372;52.294;5.152;2022-10-23T06:23:31;16.35;;;8.68;;
51288;SDS011;37372;52.294;5.152;2022-10-23T06:25:58;15.00;;;8.82;;
51288;SDS011;37372;52.294;5.152;2022-10-23T06:28:24;13.85;;;8.60;;
51288;SDS011;37372;52.294;5.152;2022-10-23T06:30:50;20.02;;;8.55;;
51288;SDS011;37372;52.294;5.152;2022-10-23T06:33:15;20.13;;;8.85;;
51288;SDS011;37372;52.294;5.152;2022-10-23T06:35:41;17.33;;;9.70;;
51288;SDS011;37372;52.294;5.152;2022-10-23T06:38:07;16.50;;;8.00;;
51288;SDS011;37372;52.294;5.152;2022-10-23T06:40:34;24.58;;;9.25;;
51288;SDS011;37372;52.294;5.152;2022-10-23T06:42:59;23.17;;;9.18;;
51288;SDS011;37372;52.294;5.152;2022-10-23T06:45:25;16.35;;;8.75;;
51288;SDS011;37372;52.294;5.152;2022-10-23T06:47:51;15.95;;;8.23;;
51288;SDS011;37372;52.294;5.152;2022-10-23T06:50:17;22.25;;;8.15;;
51288;SDS011;37372;52.294;5.152;2022-10-23T06:52:42;11.68;;;7.65;;
51288;SDS011;37372;52.294;5.152;2022-10-23T06:55:08;16.52;;;7.22;;
51288;SDS011;37372;52.294;5.152;2022-10-23T06:57:34;15.38;;;7.75;;
51288;SDS011;37372;52.294;5.152;2022-10-23T06:59:59;12.98;;;7.75;;
51288;SDS011;37372;52.294;5.152;2022-10-23T07:02:25;19.88;;;7.93;;
51288;SDS011;37372;52.294;5.152;2022-10-23T07:04:50;16.83;;;7.10;;
51288;SDS011;37372;52.294;5.152;2022-10-23T07:07:15;23.58;;;8.20;;
51288;SDS011;37372;52.294;5.152;2022-10-23T07:09:41;14.30;;;8.07;;
51288;SDS011;37372;52.294;5.152;2022-10-23T07:12:10;16.75;;;7.43;;
51288;SDS011;37372;52.294;5.152;2022-10-23T07:14:35;17.92;;;7.80;;
51288;SDS011;37372;52.294;5.152;2022-10-23T07:17:01;14.75;;;7.40;;
51288;SDS011;37372;52.294;5.152;2022-10-23T07:19:26;12.32;;;8.25;;
51288;SDS011;37372;52.294;5.152;2022-10-23T07:21:52;16.17;;;8.05;;
51288;SDS011;37372;52.294;5.152;2022-10-23T07:24:17;14.20;;;8.02;;
51288;SDS011;37372;52.294;5.152;2022-10-23T07:26:43;15.13;;;8.68;;
51288;SDS011;37372;52.294;5.152;2022-10-23T07:29:09;20.48;;;7.47;;
51288;SDS011;37372;52.294;5.152;2022-10-23T07:31:35;17.60;;;8.40;;
51288;SDS011;37372;52.294;5.152;2022-10-23T07:34:01;12.88;;;7.93;;
51288;SDS011;37372;52.294;5.152;2022-10-23T07:36:26;20.23;;;8.40;;
51288;SDS011;37372;52.294;5.152;2022-10-23T07:38:52;14.50;;;8.70;;
51288;SDS011;37372;52.294;5.152;2022-10-23T07:41:17;18.67;;;7.43;;
51288;SDS011;37372;52.294;5.152;2022-10-23T07:43:42;13.77;;;8.02;;
51288;SDS011;37372;52.294;5.152;2022-10-23T07:46:08;22.33;;;8.00;;
51288;SDS011;37372;52.294;5.152;2022-10-23T07:48:34;12.93;;;7.05;;
51288;SDS011;37372;52.294;5.152;2022-10-23T07:51:04;14.43;;;7.18;;
51288;SDS011;37372;52.294;5.152;2022-10-23T07:53:32;15.63;;;9.15;;
51288;SDS011;37372;52.294;5.152;2022-10-23T07:56:00;18.25;;;8.00;;
51288;SDS011;37372;52.294;5.152;2022-10-23T07:58:28;14.27;;;8.07;;
51288;SDS011;37372;52.294;5.152;2022-10-23T08:00:55;13.35;;;8.13;;
51288;SDS011;37372;52.294;5.152;2022-10-23T08:03:29;13.60;;;8.15;;
51288;SDS011;37372;52.294;5.152;2022-10-23T08:05:57;15.98;;;7.53;;
51288;SDS011;37372;52.294;5.152;2022-10-23T08:08:23;16.00;;;6.97;;
51288;SDS011;37372;52.294;5.152;2022-10-23T08:10:52;14.55;;;7.22;;
51288;SDS011;37372;52.294;5.152;2022-10-23T08:13:19;14.10;;;7.47;;
51288;SDS011;37372;52.294;5.152;2022-10-23T08:15:45;11.73;;;6.88;;
51288;SDS011;37372;52.294;5.152;2022-10-23T08:18:12;13.25;;;7.43;;
51288;SDS011;37372;52.294;5.152;2022-10-23T08:20:38;16.90;;;7.57;;
51288;SDS011;37372;52.294;5.152;2022-10-23T08:23:07;14.15;;;7.43;;
51288;SDS011;37372;52.294;5.152;2022-10-23T08:25:34;17.42;;;6.60;;
51288;SDS011;37372;52.294;5.152;2022-10-23T08:27:59;16.10;;;7.10;;
51288;SDS011;37372;52.294;5.152;2022-10-23T08:30:25;14.38;;;6.57;;
51288;SDS011;37372;52.294;5.152;2022-10-23T08:32:51;10.15;;;7.05;;
51288;SDS011;37372;52.294;5.152;2022-10-23T08:35:17;12.70;;;7.60;;
51288;SDS011;37372;52.294;5.152;2022-10-23T08:37:42;19.63;;;6.30;;
51288;SDS011;37372;52.294;5.152;2022-10-23T08:40:14;13.32;;;6.70;;
51288;SDS011;37372;52.294;5.152;2022-10-23T08:42:42;12.15;;;7.28;;
51288;SDS011;37372;52.294;5.152;2022-10-23T08:45:20;12.45;;;6.72;;
51288;SDS011;37372;52.294;5.152;2022-10-23T08:47:57;12.35;;;6.47;;
51288;SDS011;37372;52.294;5.152;2022-10-23T08:50:31;15.43;;;5.63;;
51288;SDS011;37372;52.294;5.152;2022-10-23T08:53:17;12.77;;;6.38;;
51288;SDS011;37372;52.294;5.152;2022-10-23T08:55:56;13.40;;;5.85;;
51288;SDS011;37372;52.294;5.152;2022-10-23T08:58:30;11.25;;;6.05;;
51288;SDS011;37372;52.294;5.152;2022-10-23T09:00:58;10.77;;;5.95;;
51288;SDS011;37372;52.294;5.152;2022-10-23T09:03:23;10.50;;;5.47;;
51288;SDS011;37372;52.294;5.152;2022-10-23T09:09:06;10.38;;;5.97;;
51288;SDS011;37372;52.294;5.152;2022-10-23T09:12:10;11.25;;;5.85;;
51288;SDS011;37372;52.294;5.152;2022-10-23T09:19:53;10.43;;;6.00;;
51288;SDS011;37372;52.294;5.152;2022-10-23T09:22:24;8.23;;;5.45;;
51288;SDS011;37372;52.294;5.152;2022-10-23T09:24:51;13.60;;;6.07;;
51288;SDS011;37372;52.294;5.152;2022-10-23T09:27:16;11.40;;;5.45;;
51288;SDS011;37372;52.294;5.152;2022-10-23T09:29:49;13.43;;;5.97;;
51288;SDS011;37372;52.294;5.152;2022-10-23T09:34:49;14.65;;;5.45;;
51288;SDS011;37372;52.294;5.152;2022-10-23T09:39:59;12.98;;;5.07;;
51288;SDS011;37372;52.294;5.152;2022-10-23T09:42:53;12.27;;;5.85;;
51288;SDS011;37372;52.294;5.152;2022-10-23T09:45:22;12.27;;;6.28;;
51288;SDS011;37372;52.294;5.152;2022-10-23T09:47:50;14.32;;;6.05;;
51288;SDS011;37372;52.294;5.152;2022-10-23T09:50:17;16.40;;;5.72;;
51288;SDS011;37372;52.294;5.152;2022-10-23T09:52:44;9.93;;;5.63;;
51288;SDS011;37372;52.294;5.152;2022-10-23T09:55:23;13.27;;;5.10;;
51288;SDS011;37372;52.294;5.152;2022-10-23T09:57:50;11.27;;;6.13;;
51288;SDS011;37372;52.294;5.152;2022-10-23T10:02:54;9.98;;;5.22;;
51288;SDS011;37372;52.294;5.152;2022-10-23T10:05:35;11.40;;;5.20;;
51288;SDS011;37372;52.294;5.152;2022-10-23T10:10:39;9.30;;;5.05;;
51288;SDS011;37372;52.294;5.152;2022-10-23T10:13:27;10.73;;;5.03;;
51288;SDS011;37372;52.294;5.152;2022-10-23T10:16:02;8.88;;;5.28;;
51288;SDS011;37372;52.294;5.152;2022-10-23T10:18:42;11.45;;;5.30;;
51288;SDS011;37372;52.294;5.152;2022-10-23T10:21:24;13.52;;;5.70;;
51288;SDS011;37372;52.294;5.152;2022-10-23T10:23:54;10.45;;;4.63;;
51288;SDS011;37372;52.294;5.152;2022-10-23T10:29:29;12.13;;;5.07;;
51288;SDS011;37372;52.294;5.152;2022-10-23T10:32:30;8.30;;;5.07;;
51288;SDS011;37372;52.294;5.152;2022-10-23T10:40:16;11.05;;;4.30;;
51288;SDS011;37372;52.294;5.152;2022-10-23T10:45:48;13.18;;;4.95;;
51288;SDS011;37372;52.294;5.152;2022-10-23T10:56:14;10.27;;;4.25;;
51288;SDS011;37372;52.294;5.152;2022-10-23T11:03:56;13.63;;;4.65;;
51288;SDS011;37372;52.294;5.152;2022-10-23T11:06:26;9.07;;;3.95;;
51288;SDS011;37372;52.294;5.152;2022-10-23T11:08:55;7.18;;;3.60;;
51288;SDS011;37372;52.294;5.152;2022-10-23T11:11:36;8.15;;;4.55;;
51288;SDS011;37372;52.294;5.152;2022-10-23T11:14:17;12.52;;;4.47;;
51288;SDS011;37372;52.294;5.152;2022-10-23T11:16:45;14.90;;;3.97;;
51288;SDS011;37372;52.294;5.152;2022-10-23T11:21:57;6.55;;;3.45;;
51288;SDS011;37372;52.294;5.152;2022-10-23T11:27:12;10.15;;;4.40;;
51288;SDS011;37372;52.294;5.152;2022-10-23T11:35:52;15.38;;;4.30;;
51288;SDS011;37372;52.294;5.152;2022-10-23T11:38:35;8.35;;;3.70;;
51288;SDS011;37372;52.294;5.152;2022-10-23T11:41:15;6.68;;;2.95;;
51288;SDS011;37372;52.294;5.152;2022-10-23T11:48:47;10.77;;;4.85;;
51288;SDS011;37372;52.294;5.152;2022-10-23T11:56:34;6.85;;;3.05;;
51288;SDS011;37372;52.294;5.152;2022-10-23T12:05:06;6.20;;;3.40;;
51288;SDS011;37372;52.294;5.152;2022-10-23T12:07:52;6.38;;;2.55;;
51288;SDS011;37372;52.294;5.152;2022-10-23T12:10:30;5.07;;;2.40;;
51288;SDS011;37372;52.294;5.152;2022-10-23T12:13:02;6.57;;;2.60;;
51288;SDS011;37372;52.294;5.152;2022-10-23T12:15:29;10.35;;;3.30;;
51288;SDS011;37372;52.294;5.152;2022-10-23T12:18:12;8.55;;;2.60;;
51288;SDS011;37372;52.294;5.152;2022-10-23T12:20:58;5.32;;;2.65;;
51288;SDS011;37372;52.294;5.152;2022-10-23T12:26:27;7.65;;;2.78;;
51288;SDS011;37372;52.294;5.152;2022-10-23T12:29:49;7.53;;;3.55;;
51288;SDS011;37372;52.294;5.152;2022-10-23T12:32:17;8.15;;;2.83;;
51288;SDS011;37372;52.294;5.152;2022-10-23T12:40:37;5.97;;;2.50;;
51288;SDS011;37372;52.294;5.152;2022-10-23T12:43:15;8.52;;;2.75;;
51288;SDS011;37372;52.294;5.152;2022-10-23T12:45:47;7.43;;;2.35;;
51288;SDS011;37372;52.294;5.152;2022-10-23T12:48:19;9.20;;;2.72;;
51288;SDS011;37372;52.294;5.152;2022-10-23T12:50:51;9.68;;;2.53;;
51288;SDS011;37372;52.294;5.152;2022-10-23T12:53:18;9.18;;;2.63;;
51288;SDS011;37372;52.294;5.152;2022-10-23T12:55:56;8.70;;;2.38;;
51288;SDS011;37372;52.294;5.152;2022-10-23T12:58:25;5.57;;;2.05;;
51288;SDS011;37372;52.294;5.152;2022-10-23T13:00:58;5.28;;;2.03;;
51288;SDS011;37372;52.294;5.152;2022-10-23T13:03:25;4.97;;;2.13;;
51288;SDS011;37372;52.294;5.152;2022-10-23T13:05:53;8.25;;;2.55;;
51288;SDS011;37372;52.294;5.152;2022-10-23T13:08:23;8.60;;;2.58;;
51288;SDS011;37372;52.294;5.152;2022-10-23T13:10:56;6.13;;;2.45;;
51288;SDS011;37372;52.294;5.152;2022-10-23T13:13:22;6.47;;;1.83;;
51288;SDS011;37372;52.294;5.152;2022-10-23T13:15:49;8.95;;;3.10;;
51288;SDS011;37372;52.294;5.152;2022-10-23T13:18:15;6.55;;;2.33;;
51288;SDS011;37372;52.294;5.152;2022-10-23T13:23:16;6.35;;;2.00;;
51288;SDS011;37372;52.294;5.152;2022-10-23T13:26:00;3.47;;;1.70;;
51288;SDS011;37372;52.294;5.152;2022-10-23T13:28:33;6.28;;;2.00;;
51288;SDS011;37372;52.294;5.152;2022-10-23T13:33:39;12.15;;;2.97;;
51288;SDS011;37372;52.294;5.152;2022-10-23T13:38:37;6.68;;;2.05;;
51288;SDS011;37372;52.294;5.152;2022-10-23T13:41:05;5.15;;;2.72;;
51288;SDS011;37372;52.294;5.152;2022-10-23T13:43:37;6.60;;;2.40;;
51288;SDS011;37372;52.294;5.152;2022-10-23T13:46:03;8.30;;;2.00;;
51288;SDS011;37372;52.294;5.152;2022-10-23T13:48:29;9.70;;;2.67;;
51288;SDS011;37372;52.294;5.152;2022-10-23T13:51:00;6.57;;;2.08;;
51288;SDS011;37372;52.294;5.152;2022-10-23T13:53:36;4.22;;;2.10;;
51288;SDS011;37372;52.294;5.152;2022-10-23T13:56:01;5.70;;;2.05;;
51288;SDS011;37372;52.294;5.152;2022-10-23T13:58:27;7.80;;;2.08;;
51288;SDS011;37372;52.294;5.152;2022-10-23T14:00:52;5.95;;;1.90;;
51288;SDS011;37372;52.294;5.152;2022-10-23T14:03:18;5.72;;;2.35;;
51288;SDS011;37372;52.294;5.152;2022-10-23T14:05:48;9.63;;;2.22;;
51288;SDS011;37372;52.294;5.152;2022-10-23T14:08:15;7.72;;;2.25;;
51288;SDS011;37372;52.294;5.152;2022-10-23T14:10:40;8.98;;;2.60;;
51288;SDS011;37372;52.294;5.152;2022-10-23T14:13:05;5.97;;;1.63;;
51288;SDS011;37372;52.294;5.152;2022-10-23T14:15:31;5.63;;;2.00;;
51288;SDS011;37372;52.294;5.152;2022-10-23T14:17:56;5.45;;;2.05;;
51288;SDS011;37372;52.294;5.152;2022-10-23T14:20:21;6.78;;;1.92;;
51288;SDS011;37372;52.294;5.152;2022-10-23T14:22:47;8.38;;;2.58;;
51288;SDS011;37372;52.294;5.152;2022-10-23T14:25:12;4.88;;;2.00;;
51288;SDS011;37372;52.294;5.152;2022-10-23T14:27:38;5.97;;;2.25;;
51288;SDS011;37372;52.294;5.152;2022-10-23T14:30:04;5.40;;;2.08;;
51288;SDS011;37372;52.294;5.152;2022-10-23T14:32:29;9.93;;;2.85;;
51288;SDS011;37372;52.294;5.152;2022-10-23T14:34:55;7.13;;;2.40;;
51288;SDS011;37372;52.294;5.152;2022-10-23T14:37:21;6.18;;;2.45;;
51288;SDS011;37372;52.294;5.152;2022-10-23T14:39:46;6.22;;;2.28;;
51288;SDS011;37372;52.294;5.152;2022-10-23T14:42:12;4.93;;;1.90;;
51288;SDS011;37372;52.294;5.152;2022-10-23T14:44:38;9.63;;;2.58;;
51288;SDS011;37372;52.294;5.152;2022-10-23T14:47:03;5.50;;;2.10;;
51288;SDS011;37372;52.294;5.152;2022-10-23T14:49:29;13.35;;;2.60;;
51288;SDS011;37372;52.294;5.152;2022-10-23T14:51:54;5.28;;;2.00;;
51288;SDS011;37372;52.294;5.152;2022-10-23T14:54:20;6.40;;;2.45;;
51288;SDS011;37372;52.294;5.152;2022-10-23T14:56:45;5.45;;;2.70;;
51288;SDS011;37372;52.294;5.152;2022-10-23T14:59:11;4.63;;;2.55;;
51288;SDS011;37372;52.294;5.152;2022-10-23T15:01:39;3.80;;;2.25;;
51288;SDS011;37372;52.294;5.152;2022-10-23T15:04:07;7.93;;;2.70;;
51288;SDS011;37372;52.294;5.152;2022-10-23T15:06:34;7.32;;;2.85;;
51288;SDS011;37372;52.294;5.152;2022-10-23T15:09:00;7.50;;;2.15;;
51288;SDS011;37372;52.294;5.152;2022-10-23T15:11:27;15.00;;;2.30;;
51288;SDS011;37372;52.294;5.152;2022-10-23T15:13:52;8.15;;;2.72;;
51288;SDS011;37372;52.294;5.152;2022-10-23T15:16:19;7.45;;;2.67;;
51288;SDS011;37372;52.294;5.152;2022-10-23T15:18:45;11.90;;;2.22;;
51288;SDS011;37372;52.294;5.152;2022-10-23T15:21:11;9.63;;;2.85;;
51288;SDS011;37372;52.294;5.152;2022-10-23T15:23:40;10.00;;;2.83;;
51288;SDS011;37372;52.294;5.152;2022-10-23T15:26:07;8.32;;;2.80;;
51288;SDS011;37372;52.294;5.152;2022-10-23T15:28:35;7.50;;;2.85;;
51288;SDS011;37372;52.294;5.152;2022-10-23T15:31:01;5.35;;;2.47;;
51288;SDS011;37372;52.294;5.152;2022-10-23T15:33:27;8.85;;;2.88;;
51288;SDS011;37372;52.294;5.152;2022-10-23T15:35:53;4.68;;;2.60;;
51288;SDS011;37372;52.294;5.152;2022-10-23T15:38:19;4.93;;;2.63;;
51288;SDS011;37372;52.294;5.152;2022-10-23T15:40:45;8.68;;;2.90;;
51288;SDS011;37372;52.294;5.152;2022-10-23T15:43:14;9.48;;;2.95;;
51288;SDS011;37372;52.294;5.152;2022-10-23T15:45:40;6.35;;;3.55;;
51288;SDS011;37372;52.294;5.152;2022-10-23T15:48:06;7.13;;;3.33;;
51288;SDS011;37372;52.294;5.152;2022-10-23T15:50:33;6.75;;;2.75;;
51288;SDS011;37372;52.294;5.152;2022-10-23T15:52:59;8.55;;;2.63;;
51288;SDS011;37372;52.294;5.152;2022-10-23T15:55:24;7.43;;;3.30;;
51288;SDS011;37372;52.294;5.152;2022-10-23T15:57:50;10.63;;;3.40;;
51288;SDS011;37372;52.294;5.152;2022-10-23T16:00:15;6.55;;;3.33;;
51288;SDS011;37372;52.294;5.152;2022-10-23T16:02:41;9.50;;;3.38;;
51288;SDS011;37372;52.294;5.152;2022-10-23T16:05:07;6.82;;;3.28;;
51288;SDS011;37372;52.294;5.152;2022-10-23T16:07:33;9.15;;;3.00;;
51288;SDS011;37372;52.294;5.152;2022-10-23T16:09:58;6.13;;;3.22;;
51288;SDS011;37372;52.294;5.152;2022-10-23T16:12:24;6.50;;;3.33;;
51288;SDS011;37372;52.294;5.152;2022-10-23T16:14:50;5.18;;;3.30;;
51288;SDS011;37372;52.294;5.152;2022-10-23T16:17:16;9.73;;;3.30;;
51288;SDS011;37372;52.294;5.152;2022-10-23T16:19:43;8.40;;;2.95;;
51288;SDS011;37372;52.294;5.152;2022-10-23T16:22:09;7.15;;;2.97;;
51288;SDS011;37372;52.294;5.152;2022-10-23T16:24:34;6.35;;;3.10;;
51288;SDS011;37372;52.294;5.152;2022-10-23T16:27:00;8.60;;;4.65;;
51288;SDS011;37372;52.294;5.152;2022-10-23T16:29:26;9.07;;;3.67;;
51288;SDS011;37372;52.294;5.152;2022-10-23T16:31:53;8.35;;;3.40;;
51288;SDS011;37372;52.294;5.152;2022-10-23T16:34:19;11.05;;;3.58;;
51288;SDS011;37372;52.294;5.152;2022-10-23T16:36:46;18.00;;;3.70;;
51288;SDS011;37372;52.294;5.152;2022-10-23T16:39:12;7.03;;;3.22;;
51288;SDS011;37372;52.294;5.152;2022-10-23T16:41:39;7.22;;;3.78;;
51288;SDS011;37372;52.294;5.152;2022-10-23T16:44:04;13.82;;;4.07;;
51288;SDS011;37372;52.294;5.152;2022-10-23T16:46:30;11.82;;;4.47;;